Time;durP1;ratioP1;P1;durP2;ratioP2;P2;SDS_P1;SDS_P2;PMS_P1;PMS_P2;Temp;Humidity;BMP_temperature;BMP_pressure;BME280_temperature;BME280_humidity;BME280_pressure;Samples;Min_cycle;Max_cycle;Signal;HPM_P1;HPM_P2
2021/08/22 00:10:39;;;;;;;84.50;38.53;;;19.90;92.90;;;;;;5048406;28;20609;-93
2021/08/22 00:31:00;;;;;;;;;;;;;;;;;;;;;
2021/08/22 00:46:41;;;;;;;;;;;;;;;;;;;;;
2021/08/22 00:53:30;;;;;;;;;;;;;;;;;;;;;
2021/08/22 01:00:36;;;;;;;119.80;46.55;;;19.40;92.50;;;;;;4931933;28;20260;-93
2021/08/22 01:07:34;;;;;;;;;;;;;;;;;;;;;
2021/08/22 01:10:24;;;;;;;108.65;46.92;;;19.60;92.80;;;;;;4980521;28;20343;-92
2021/08/22 01:14:04;;;;;;;115.78;49.45;;;19.50;92.60;;;;;;4982176;28;20219;-93
2021/08/22 01:17:17;;;;;;;113.90;48.03;;;19.60;92.40;;;;;;5001251;28;20159;-93
2021/08/22 01:20:34;;;;;;;122.50;52.55;;;19.50;92.40;;;;;;4924138;29;20174;-93
2021/08/22 01:23:48;;;;;;;112.70;47.72;;;19.50;92.40;;;;;;4995924;28;20190;-95
2021/08/22 01:26:20;;;;;;;123.75;51.83;;;19.50;92.40;;;;;;5020619;28;20182;-91
2021/08/22 01:28:51;;;;;;;118.35;51.33;;;19.50;92.30;;;;;;5020944;28;20175;-92
2021/08/22 01:31:30;;;;;;;113.28;52.67;;;19.50;92.30;;;;;;5020738;28;20202;-93
2021/08/22 01:34:39;;;;;;;;;;;;;;;;;;;;;
2021/08/22 01:37:08;;;;;;;106.55;48.25;;;19.50;92.10;;;;;;5004624;28;20265;-93
2021/08/22 01:39:46;;;;;;;118.40;50.60;;;19.80;91.30;;;;;;5021595;28;20182;-92
2021/08/22 01:42:16;;;;;;;119.72;52.92;;;19.70;91.00;;;;;;5019664;28;20563;-93
2021/08/22 01:44:43;;;;;;;113.00;50.80;;;19.60;91.20;;;;;;5019349;28;20193;-93
2021/08/22 01:47:13;;;;;;;101.28;50.08;;;19.60;91.40;;;;;;5020983;28;20182;-92
2021/08/22 01:49:49;;;;;;;90.45;47.00;;;19.60;92.20;;;;;;5019698;28;20209;-93
2021/08/22 01:52:32;;;;;;;109.70;46.92;;;19.50;91.90;;;;;;5018173;28;20213;-93
2021/08/22 01:55:05;;;;;;;93.53;46.28;;;19.40;91.30;;;;;;5015861;28;20181;-92
2021/08/22 01:57:32;;;;;;;89.82;42.20;;;19.40;91.30;;;;;;5015815;28;20182;-93
2021/08/22 02:00:02;;;;;;;89.25;45.30;;;19.40;91.30;;;;;;5015711;28;20181;-93
2021/08/22 02:02:34;;;;;;;83.22;42.95;;;19.30;91.10;;;;;;5014618;28;20297;-93
2021/08/22 02:05:07;;;;;;;80.65;42.40;;;19.30;91.10;;;;;;5016255;28;20621;-92
2021/08/22 02:07:48;;;;;;;;;;;;;;;;;;;;;
2021/08/22 02:10:49;;;;;;;78.63;41.65;;;19.30;91.30;;;;;;5033468;28;20203;-93
2021/08/22 02:14:03;;;;;;;86.40;42.72;;;19.40;91.30;;;;;;4991064;28;20207;-93
2021/08/22 02:17:08;;;;;;;74.38;39.78;;;19.50;91.50;;;;;;4989864;28;20176;-92
2021/08/22 02:20:01;;;;;;;76.88;37.88;;;19.60;91.10;;;;;;4974194;28;20654;-93
2021/08/22 02:22:54;;;;;;;66.35;37.25;;;19.50;91.00;;;;;;4973013;28;20314;-93
2021/08/22 02:25:43;;;;;;;71.00;36.13;;;19.60;90.70;;;;;;4975662;28;20184;-93
2021/08/22 02:28:20;;;;;;;65.05;36.58;;;19.60;89.80;;;;;;4974752;28;20187;-92
2021/08/22 02:30:58;;;;;;;72.25;36.58;;;19.70;89.70;;;;;;4975804;28;20207;-93
2021/08/22 02:33:32;;;;;;;66.40;35.40;;;19.70;89.60;;;;;;4975199;28;20286;-94
2021/08/22 02:36:24;;;;;;;60.67;33.00;;;19.60;89.90;;;;;;4975432;28;20206;-92
2021/08/22 02:39:18;;;;;;;52.22;30.35;;;19.60;89.50;;;;;;5028858;28;20586;-92
2021/08/22 02:42:13;;;;;;;67.72;31.45;;;19.60;89.80;;;;;;5015471;28;20170;-93
2021/08/22 02:45:05;;;;;;;50.80;30.00;;;19.50;89.40;;;;;;4980302;28;20209;-94
2021/08/22 02:47:58;;;;;;;58.55;31.42;;;19.60;89.50;;;;;;5013075;28;20183;-93
2021/08/22 02:57:46;;;;;;;44.33;25.20;;;19.40;89.10;;;;;;5031215;28;20225;-93
2021/08/22 03:00:52;;;;;;;41.97;26.27;;;19.40;88.10;;;;;;5032026;28;20181;-94
2021/08/22 03:03:26;;;;;;;43.90;24.92;;;19.40;88.20;;;;;;4990909;28;20207;-93
2021/08/22 03:14:20;;;;;;;43.17;23.27;;;19.40;88.90;;;;;;4864084;29;20211;-92
2021/08/22 03:17:36;;;;;;;;;;;;;;;;;;;;;
2021/08/22 03:23:30;;;;;;;44.92;26.05;;;19.20;89.40;;;;;;4881220;29;20267;-92
2021/08/22 03:26:08;;;;;;;40.70;24.30;;;19.30;89.70;;;;;;4956512;28;20228;-93
2021/08/22 03:28:42;;;;;;;41.53;23.77;;;19.20;89.60;;;;;;4939681;29;20188;-93
2021/08/22 03:31:24;;;;;;;41.78;24.05;;;19.10;89.60;;;;;;4955624;29;20207;-93
2021/08/22 03:33:59;;;;;;;42.38;24.88;;;19.10;89.60;;;;;;4970398;28;20198;-92
2021/08/22 03:36:30;;;;;;;42.80;22.55;;;19.10;89.70;;;;;;4998629;28;20268;-93
2021/08/22 03:39:11;;;;;;;44.67;23.67;;;19.30;89.20;;;;;;5017985;28;20178;-93
2021/08/22 03:41:55;;;;;;;37.75;23.48;;;19.20;88.70;;;;;;5018184;28;20182;-93
2021/08/22 03:44:29;;;;;;;37.10;23.15;;;19.20;89.10;;;;;;5018197;28;20549;-93
2021/08/22 03:47:06;;;;;;;40.25;23.40;;;19.30;89.40;;;;;;5018785;28;20673;-93
2021/08/22 03:53:15;;;;;;;38.50;21.50;;;19.30;89.30;;;;;;4955028;28;20735;-93
2021/08/22 03:55:45;;;;;;;41.35;21.85;;;19.40;89.50;;;;;;4999829;28;20197;-93
2021/08/22 03:58:14;;;;;;;35.53;21.55;;;19.50;89.50;;;;;;5017748;28;20555;-93
2021/08/22 04:00:48;;;;;;;35.88;21.00;;;19.60;88.70;;;;;;5017008;28;20205;-93
2021/08/22 04:03:24;;;;;;;34.42;20.73;;;19.60;88.30;;;;;;5017111;28;20197;-92
2021/08/22 04:05:55;;;;;;;36.63;20.30;;;19.60;88.50;;;;;;5017450;28;20292;-93
2021/08/22 04:08:24;;;;;;;39.65;21.80;;;19.50;88.70;;;;;;5018561;28;20211;-93
2021/08/22 04:11:21;;;;;;;27.80;18.20;;;19.50;89.00;;;;;;5017501;28;20205;-93
2021/08/22 04:13:51;;;;;;;37.05;20.67;;;19.40;88.80;;;;;;5008036;28;20269;-93
2021/08/22 04:16:23;;;;;;;33.47;18.73;;;19.40;88.80;;;;;;5033688;28;20219;-94
2021/08/22 04:18:52;;;;;;;36.83;20.05;;;19.40;89.10;;;;;;5017677;28;20616;-93
2021/08/22 04:21:20;;;;;;;37.83;20.67;;;19.40;89.20;;;;;;5017002;28;20633;-93
2021/08/22 04:23:49;;;;;;;30.77;19.98;;;19.50;89.30;;;;;;5017218;28;20206;-94
2021/08/22 04:26:18;;;;;;;37.35;21.38;;;19.50;89.40;;;;;;5017533;28;20227;-93
2021/08/22 04:28:56;;;;;;;35.53;20.70;;;19.60;89.40;;;;;;5017288;28;20182;-93
2021/08/22 04:34:49;;;;;;;33.97;19.65;;;19.50;89.30;;;;;;5035404;28;20181;-93
2021/08/22 04:37:18;;;;;;;32.30;20.60;;;19.70;89.30;;;;;;5017036;28;20173;-94
2021/08/22 04:39:55;;;;;;;31.00;20.65;;;19.70;89.00;;;;;;5017677;28;20182;-93
2021/08/22 04:42:39;;;;;;;43.00;23.60;;;19.80;89.20;;;;;;5016664;28;20233;-93
2021/08/22 04:46:10;;;;;;;;;;;;;;;;;;;;;
2021/08/22 04:53:04;;;;;;;;;;;;;;;;;;;;;
2021/08/22 04:59:31;;;;;;;;;;;;;;;;;;;;;
2021/08/22 05:28:32;;;;;;;40.72;20.30;;;19.60;91.10;;;;;;5026989;28;20251;-92
2021/08/22 05:30:57;;;;;;;33.70;20.53;;;19.60;90.60;;;;;;5016127;28;20673;-93
2021/08/22 05:33:23;;;;;;;30.17;19.80;;;19.50;90.90;;;;;;5027069;28;20253;-93
2021/08/22 05:35:49;;;;;;;31.43;19.97;;;19.60;90.90;;;;;;5033446;28;20637;-93
2021/08/22 05:38:15;;;;;;;31.87;19.73;;;19.50;90.50;;;;;;5033885;28;20220;-93
2021/08/22 05:40:40;;;;;;;32.17;18.70;;;19.50;90.80;;;;;;5033234;28;20311;-93
2021/08/22 05:43:06;;;;;;;30.60;19.27;;;19.50;90.80;;;;;;5032072;28;20213;-93
2021/08/22 05:45:32;;;;;;;30.57;18.07;;;19.60;90.50;;;;;;5033002;28;20748;-93
2021/08/22 05:47:57;;;;;;;32.70;18.23;;;19.50;90.30;;;;;;5033074;28;20193;-93
2021/08/22 05:50:23;;;;;;;31.77;18.00;;;19.50;90.70;;;;;;5033485;28;20213;-92
2021/08/22 05:52:49;;;;;;;24.20;16.47;;;19.40;90.80;;;;;;5032710;28;20272;-93
2021/08/22 05:55:18;;;;;;;24.43;16.67;;;19.40;91.10;;;;;;5033868;28;20421;-94
2021/08/22 05:57:44;;;;;;;22.48;15.35;;;19.50;91.00;;;;;;5034223;28;20182;-94
2021/08/22 06:00:10;;;;;;;26.20;15.73;;;19.50;90.70;;;;;;5034362;28;20219;-94
2021/08/22 06:02:37;;;;;;;23.65;15.50;;;19.40;90.90;;;;;;5039162;28;20198;-93
2021/08/22 06:05:06;;;;;;;22.52;15.93;;;19.30;91.30;;;;;;5042758;28;20197;-93
2021/08/22 06:07:32;;;;;;;22.65;15.07;;;19.40;91.60;;;;;;5039035;28;20181;-92
2021/08/22 06:10:16;;;;;;;21.23;14.87;;;19.50;91.80;;;;;;5038094;28;20212;-92
2021/08/22 06:12:42;;;;;;;20.20;13.48;;;19.50;91.90;;;;;;5034417;28;20197;-93
2021/08/22 06:15:08;;;;;;;20.83;12.47;;;19.60;91.60;;;;;;5033875;28;20181;-93
2021/08/22 06:17:34;;;;;;;21.58;12.40;;;19.70;91.40;;;;;;5033877;28;20180;-93
2021/08/22 06:20:00;;;;;;;23.60;11.17;;;19.90;91.40;;;;;;5034196;28;20550;-92
2021/08/22 06:22:26;;;;;;;13.13;9.77;;;20.00;90.80;;;;;;5034552;28;20766;-93
2021/08/22 06:24:51;;;;;;;18.20;10.80;;;20.00;90.50;;;;;;5034204;28;20185;-93
2021/08/22 06:27:17;;;;;;;14.27;9.10;;;20.10;90.50;;;;;;5036176;28;20676;-94
2021/08/22 06:29:43;;;;;;;18.13;10.90;;;20.30;90.00;;;;;;5034227;28;20700;-92
2021/08/22 06:32:09;;;;;;;15.85;10.70;;;20.40;89.50;;;;;;5035357;28;20440;-92
2021/08/22 06:34:35;;;;;;;10.33;8.47;;;20.40;89.10;;;;;;5036756;28;20177;-93
2021/08/22 06:37:09;;;;;;;10.57;8.38;;;20.50;88.60;;;;;;5041595;28;20181;-94
2021/08/22 06:39:40;;;;;;;11.90;8.00;;;20.50;87.90;;;;;;5044445;28;20177;-94
2021/08/22 06:42:07;;;;;;;13.00;8.82;;;20.50;87.30;;;;;;5045976;28;20229;-93
2021/08/22 06:44:33;;;;;;;13.50;8.35;;;20.60;87.10;;;;;;5049355;28;20200;-92
2021/08/22 06:47:00;;;;;;;11.13;7.65;;;20.50;87.10;;;;;;5060105;28;20173;-92
2021/08/22 06:49:25;;;;;;;10.93;7.53;;;20.60;86.00;;;;;;5060129;28;20204;-90
2021/08/22 06:51:51;;;;;;;11.43;7.50;;;20.70;85.10;;;;;;5059989;28;20189;-93
2021/08/22 06:54:17;;;;;;;11.37;7.23;;;20.70;85.40;;;;;;5060040;28;20439;-93
2021/08/22 06:56:43;;;;;;;13.43;6.87;;;20.80;85.80;;;;;;5060159;28;20446;-90
2021/08/22 06:59:17;;;;;;;10.67;6.73;;;20.80;86.20;;;;;;5059928;28;20174;-90
2021/08/22 07:01:42;;;;;;;7.53;5.10;;;20.90;83.90;;;;;;5059726;28;20166;-93
2021/08/22 07:04:08;;;;;;;7.50;6.23;;;20.90;83.50;;;;;;5059979;28;20232;-92
2021/08/22 07:06:34;;;;;;;8.00;5.63;;;20.90;83.40;;;;;;5059859;28;20158;-91
2021/08/22 07:09:00;;;;;;;12.83;5.90;;;21.00;81.50;;;;;;5059921;28;20181;-93
2021/08/22 07:11:25;;;;;;;9.03;6.67;;;20.80;82.30;;;;;;5059526;28;20209;-94
2021/08/22 07:13:51;;;;;;;17.20;6.60;;;20.70;83.30;;;;;;5059720;28;20200;-90
2021/08/22 07:16:17;;;;;;;10.17;6.70;;;20.60;84.20;;;;;;5059123;28;20189;-93
2021/08/22 07:18:43;;;;;;;10.03;6.80;;;20.60;84.00;;;;;;5052405;28;20212;-93
2021/08/22 07:21:08;;;;;;;8.90;5.80;;;20.60;85.20;;;;;;5046948;28;20174;-93
2021/08/22 07:23:34;;;;;;;17.17;5.30;;;20.60;84.90;;;;;;5043403;28;20231;-93
2021/08/22 07:26:00;;;;;;;12.00;6.22;;;20.70;85.20;;;;;;5043839;28;20525;-93
2021/08/22 07:28:26;;;;;;;11.43;5.43;;;20.80;84.20;;;;;;5037037;28;20259;-93
2021/08/22 07:30:52;;;;;;;12.10;6.33;;;21.00;82.50;;;;;;5037018;28;20205;-93
2021/08/22 07:33:18;;;;;;;9.17;6.23;;;21.10;80.70;;;;;;5036434;28;20202;-93
2021/08/22 07:35:43;;;;;;;10.53;5.83;;;21.20;80.50;;;;;;5019989;28;20425;-93
2021/08/22 07:38:09;;;;;;;11.13;5.27;;;21.30;80.00;;;;;;5036786;28;20421;-93
2021/08/22 07:40:36;;;;;;;13.50;5.60;;;21.10;80.80;;;;;;5037083;28;20511;-93
2021/08/22 07:43:02;;;;;;;13.18;6.05;;;21.00;81.20;;;;;;5017720;28;20198;-94
2021/08/22 07:45:28;;;;;;;10.00;4.83;;;20.90;81.80;;;;;;5017194;28;20196;-93
2021/08/22 07:47:53;;;;;;;9.00;5.73;;;21.10;81.00;;;;;;5017422;28;20193;-93
2021/08/22 07:50:19;;;;;;;6.53;5.40;;;21.00;81.20;;;;;;5018301;28;20228;-93
2021/08/22 07:52:45;;;;;;;8.70;5.30;;;21.10;81.90;;;;;;5018264;28;20206;-93
2021/08/22 07:55:11;;;;;;;15.17;5.80;;;21.00;80.60;;;;;;5017518;28;20188;-93
2021/08/22 07:57:38;;;;;;;8.80;5.17;;;21.20;81.00;;;;;;5018048;28;20592;-93
2021/08/22 08:00:04;;;;;;;6.90;4.70;;;21.30;80.80;;;;;;5017992;28;20440;-95
2021/08/22 08:02:30;;;;;;;13.80;5.50;;;21.20;81.30;;;;;;5017411;28;20750;-93
2021/08/22 08:04:56;;;;;;;12.03;5.57;;;21.30;80.80;;;;;;5018207;28;20430;-94
2021/08/22 08:07:21;;;;;;;9.53;4.87;;;21.40;80.80;;;;;;5019749;28;20237;-93
2021/08/22 08:09:47;;;;;;;10.07;5.13;;;21.50;80.80;;;;;;5019671;28;20684;-93
2021/08/22 08:12:13;;;;;;;10.00;5.90;;;21.50;80.70;;;;;;5020532;28;20712;-93
2021/08/22 08:14:38;;;;;;;8.23;4.33;;;21.70;80.00;;;;;;5018062;28;20209;-94
2021/08/22 08:17:04;;;;;;;11.00;4.90;;;21.60;79.80;;;;;;5017117;28;20178;-94
2021/08/22 08:19:30;;;;;;;10.60;4.73;;;21.60;79.50;;;;;;5017358;28;20638;-94
2021/08/22 08:21:55;;;;;;;8.30;5.10;;;21.80;78.00;;;;;;5020249;28;20174;-93
2021/08/22 08:24:21;;;;;;;8.60;4.83;;;21.90;74.30;;;;;;5025072;28;20186;-92
2021/08/22 08:26:47;;;;;;;12.90;5.70;;;22.00;75.70;;;;;;5025679;28;20189;-93
2021/08/22 08:29:13;;;;;;;12.23;5.43;;;21.90;77.20;;;;;;5024791;28;20352;-93
2021/08/22 08:31:38;;;;;;;7.73;5.83;;;22.00;76.30;;;;;;5018061;28;20199;-93
2021/08/22 08:34:04;;;;;;;11.03;5.10;;;22.10;77.10;;;;;;5018189;28;20198;-93
2021/08/22 08:36:30;;;;;;;9.93;4.63;;;22.40;75.40;;;;;;5018477;28;20179;-92
2021/08/22 08:38:56;;;;;;;8.30;5.70;;;22.50;72.90;;;;;;5020127;28;20429;-93
2021/08/22 08:41:21;;;;;;;7.23;5.20;;;22.40;74.10;;;;;;5024608;28;20185;-93
2021/08/22 08:43:48;;;;;;;9.23;5.50;;;22.30;74.80;;;;;;5040058;28;20293;-93
2021/08/22 08:46:21;;;;;;;8.87;5.30;;;22.30;75.10;;;;;;5038907;28;20214;-93
2021/08/22 08:49:08;;;;;;;11.17;5.57;;;22.40;74.30;;;;;;5050404;28;20404;-94
2021/08/22 08:52:00;;;;;;;10.00;5.37;;;22.30;74.50;;;;;;5054352;28;20463;-93
2021/08/22 08:54:39;;;;;;;32.43;5.97;;;22.20;74.40;;;;;;5050245;28;20429;-94
2021/08/22 08:57:06;;;;;;;8.60;5.00;;;22.10;74.70;;;;;;5055236;28;20400;-93
2021/08/22 08:59:36;;;;;;;11.23;5.87;;;22.50;72.20;;;;;;5054873;28;20424;-95
2021/08/22 09:02:02;;;;;;;13.23;6.73;;;22.60;70.80;;;;;;5055100;28;20421;-94
2021/08/22 09:04:27;;;;;;;11.70;6.23;;;22.80;70.10;;;;;;5055768;28;20432;-94
2021/08/22 09:07:15;;;;;;;7.40;5.33;;;22.70;71.60;;;;;;5056026;28;20428;-93
2021/08/22 09:10:11;;;;;;;10.13;5.80;;;23.00;70.80;;;;;;5055893;28;20162;-93
2021/08/22 09:13:05;;;;;;;12.50;6.83;;;23.20;71.40;;;;;;5056843;28;20470;-92
2021/08/22 09:16:08;;;;;;;20.70;6.90;;;23.10;68.30;;;;;;5057419;28;20424;-92
2021/08/22 09:19:02;;;;;;;10.03;6.70;;;22.70;68.40;;;;;;5057323;28;20412;-93
2021/08/22 09:22:06;;;;;;;14.43;6.73;;;22.80;68.60;;;;;;5058043;28;20411;-93
2021/08/22 09:24:31;;;;;;;11.70;7.77;;;22.70;71.80;;;;;;5056925;28;20428;-94
2021/08/22 09:27:22;;;;;;;11.77;7.63;;;22.50;73.10;;;;;;5057222;28;20424;-92
2021/08/22 09:30:25;;;;;;;9.83;7.07;;;22.10;74.00;;;;;;5057204;28;20170;-93
2021/08/22 09:33:24;;;;;;;10.73;7.63;;;22.00;74.90;;;;;;5056946;28;20443;-92
2021/08/22 09:36:24;;;;;;;12.10;8.03;;;21.70;76.00;;;;;;5057109;28;20432;-93
2021/08/22 09:39:27;;;;;;;9.07;8.03;;;21.70;76.90;;;;;;5057186;28;20428;-92
2021/08/22 09:42:24;;;;;;;9.40;6.07;;;22.00;77.80;;;;;;5056889;28;20480;-92
2021/08/22 09:45:08;;;;;;;6.60;5.00;;;22.10;77.20;;;;;;5056965;28;20440;-92
2021/08/22 09:48:10;;;;;;;5.00;3.63;;;22.20;76.00;;;;;;5056899;28;20503;-93
2021/08/22 09:51:02;;;;;;;8.90;3.80;;;22.40;74.00;;;;;;5056881;28;20466;-92
2021/08/22 09:54:09;;;;;;;6.50;5.17;;;22.20;73.60;;;;;;5056910;28;20432;-92
2021/08/22 09:57:03;;;;;;;9.37;5.13;;;22.20;73.70;;;;;;5056622;28;20425;-93
2021/08/22 09:59:50;;;;;;;5.03;4.53;;;22.50;73.90;;;;;;5055154;28;20456;-92
2021/08/22 10:02:40;;;;;;;5.07;4.07;;;22.60;72.20;;;;;;5041074;28;20463;-93
2021/08/22 10:05:13;;;;;;;6.63;4.47;;;22.60;73.80;;;;;;5035838;28;20420;-93
2021/08/22 10:07:57;;;;;;;9.00;5.80;;;22.60;74.90;;;;;;5035690;28;20974;-93
2021/08/22 10:10:27;;;;;;;8.40;4.97;;;22.60;75.50;;;;;;5036355;28;20460;-93
2021/08/22 10:12:53;;;;;;;7.00;4.70;;;22.60;75.00;;;;;;5036100;28;20446;-93
2021/08/22 10:15:20;;;;;;;7.20;4.90;;;22.80;75.40;;;;;;5038971;28;20440;-93
2021/08/22 10:17:47;;;;;;;6.93;4.10;;;22.90;71.50;;;;;;5041634;28;20177;-93
2021/08/22 10:20:14;;;;;;;5.87;4.37;;;23.10;70.60;;;;;;5041525;28;20828;-94
2021/08/22 10:22:40;;;;;;;6.93;4.63;;;23.10;69.70;;;;;;5041028;28;20440;-94
2021/08/22 10:25:06;;;;;;;7.67;4.30;;;22.90;67.20;;;;;;5041255;28;20460;-94
2021/08/22 10:27:33;;;;;;;5.53;4.23;;;22.70;67.30;;;;;;5046211;28;20420;-92
2021/08/22 10:30:02;;;;;;;5.17;3.77;;;22.60;67.40;;;;;;5046513;28;20459;-94
2021/08/22 10:32:32;;;;;;;5.40;4.80;;;22.70;68.20;;;;;;5046823;28;20444;-93
2021/08/22 10:35:19;;;;;;;4.30;3.90;;;22.80;71.20;;;;;;5045142;28;20423;-94
2021/08/22 10:37:45;;;;;;;10.10;3.73;;;22.90;72.00;;;;;;5035678;28;20421;-94
2021/08/22 10:40:28;;;;;;;7.80;4.10;;;23.10;72.10;;;;;;5029904;28;20429;-93
2021/08/22 10:43:17;;;;;;;5.60;4.33;;;23.50;68.70;;;;;;5031774;28;20464;-93
2021/08/22 10:45:47;;;;;;;4.07;3.50;;;23.40;65.80;;;;;;5019991;28;20445;-95
2021/08/22 10:48:25;;;;;;;4.73;3.83;;;23.70;66.40;;;;;;5019048;28;20958;-93
2021/08/22 10:51:04;;;;;;;5.20;3.30;;;24.00;65.90;;;;;;5020256;28;20469;-93
2021/08/22 10:53:33;;;;;;;6.97;3.53;;;24.00;67.20;;;;;;5021669;28;20979;-94
2021/08/22 10:56:25;;;;;;;4.70;3.60;;;24.10;64.40;;;;;;5020252;28;20406;-93
2021/08/22 10:59:11;;;;;;;6.70;3.50;;;24.10;63.30;;;;;;4982809;28;20509;-94
2021/08/22 11:01:39;;;;;;;5.03;3.57;;;24.00;62.90;;;;;;5018808;28;20421;-93
2021/08/22 11:04:19;;;;;;;5.97;2.83;;;24.20;62.60;;;;;;5019192;28;20444;-94
2021/08/22 11:06:55;;;;;;;4.63;3.40;;;24.20;62.30;;;;;;5019677;28;20932;-95
2021/08/22 11:09:43;;;;;;;5.30;3.10;;;24.20;62.50;;;;;;5019125;28;20417;-93
2021/08/22 11:12:23;;;;;;;6.77;3.90;;;24.40;64.60;;;;;;5019536;28;20452;-93
2021/08/22 11:14:49;;;;;;;4.70;3.40;;;24.30;62.90;;;;;;5018182;28;20951;-93
2021/08/22 11:17:15;;;;;;;5.73;4.40;;;24.30;62.30;;;;;;5017470;28;20406;-93
2021/08/22 11:19:41;;;;;;;3.40;3.17;;;24.40;64.20;;;;;;5035409;28;20209;-92
2021/08/22 11:22:29;;;;;;;4.13;3.33;;;24.50;63.10;;;;;;5037790;28;20282;-93
2021/08/22 11:24:57;;;;;;;4.43;3.27;;;24.50;64.10;;;;;;5036967;28;20233;-93
2021/08/22 11:27:28;;;;;;;6.90;3.57;;;24.60;64.50;;;;;;5037332;28;20440;-93
2021/08/22 11:29:59;;;;;;;13.23;3.60;;;24.70;62.60;;;;;;5006842;28;20525;-94
2021/08/22 11:32:26;;;;;;;3.57;3.27;;;25.10;64.50;;;;;;5038443;28;20531;-94
2021/08/22 11:34:52;;;;;;;3.37;3.00;;;25.20;60.80;;;;;;5038733;28;20417;-94
2021/08/22 11:37:42;;;;;;;3.40;2.67;;;25.20;61.80;;;;;;5038792;28;20417;-93
2021/08/22 11:40:12;;;;;;;3.20;2.90;;;25.10;62.40;;;;;;5038799;28;20431;-93
2021/08/22 11:42:43;;;;;;;4.90;3.90;;;25.30;62.90;;;;;;5037941;28;20436;-93
2021/08/22 11:45:11;;;;;;;5.03;4.37;;;25.30;61.70;;;;;;5039431;28;20427;-93
2021/08/22 11:47:38;;;;;;;5.20;4.70;;;25.50;62.00;;;;;;5038376;28;20421;-94
2021/08/22 11:50:07;;;;;;;6.90;5.17;;;25.50;57.10;;;;;;5037572;28;21001;-94
2021/08/22 11:52:37;;;;;;;6.53;5.70;;;25.50;59.80;;;;;;5037883;28;20832;-93
2021/08/22 11:55:07;;;;;;;6.60;4.73;;;25.40;60.90;;;;;;5038614;28;20463;-94
2021/08/22 11:57:33;;;;;;;4.37;3.73;;;25.40;60.40;;;;;;5039817;28;20427;-93
2021/08/22 12:00:04;;;;;;;4.50;4.10;;;25.60;58.40;;;;;;5038387;28;20432;-92
2021/08/22 12:02:29;;;;;;;4.40;4.00;;;25.40;59.50;;;;;;5038662;28;20518;-93
2021/08/22 12:05:21;;;;;;;4.00;3.60;;;25.00;60.10;;;;;;5039041;28;20420;-93
2021/08/22 12:07:59;;;;;;;8.67;5.47;;;24.70;63.60;;;;;;5039311;28;20245;-92
2021/08/22 12:10:30;;;;;;;13.00;6.43;;;24.40;66.60;;;;;;5039304;28;20959;-94
2021/08/22 12:12:59;;;;;;;18.40;10.33;;;23.80;70.20;;;;;;5039962;28;20978;-94
2021/08/22 12:15:40;;;;;;;17.00;11.50;;;22.70;74.40;;;;;;5040401;28;20424;-92
2021/08/22 12:18:22;;;;;;;13.27;9.83;;;22.00;78.80;;;;;;5040426;28;20494;-92
2021/08/22 12:20:51;;;;;;;8.30;6.93;;;21.50;82.00;;;;;;5037564;28;20423;-93
2021/08/22 12:23:17;;;;;;;8.00;5.43;;;21.10;83.60;;;;;;5035652;28;20467;-92
2021/08/22 12:25:43;;;;;;;12.60;6.00;;;21.00;84.50;;;;;;5036497;28;20439;-92
2021/08/22 12:28:28;;;;;;;9.05;7.22;;;20.80;85.60;;;;;;5036367;28;20421;-93
2021/08/22 12:31:02;;;;;;;17.60;9.73;;;20.60;86.60;;;;;;5036215;28;20752;-93
2021/08/22 12:33:36;;;;;;;12.47;8.47;;;20.50;87.70;;;;;;5036909;28;20510;-92
2021/08/22 12:36:04;;;;;;;15.25;9.70;;;20.50;88.40;;;;;;5037422;28;20418;-93
2021/08/22 12:38:37;;;;;;;16.10;10.18;;;20.40;88.80;;;;;;5035997;28;20185;-93
2021/08/22 12:41:27;;;;;;;13.32;10.77;;;20.40;89.20;;;;;;5037262;28;20173;-93
2021/08/22 12:43:54;;;;;;;21.05;12.35;;;20.40;89.70;;;;;;5036866;28;20213;-93
2021/08/22 12:46:28;;;;;;;18.85;11.05;;;20.30;90.00;;;;;;5036681;28;20181;-92
2021/08/22 12:48:55;;;;;;;16.42;11.15;;;20.30;90.10;;;;;;5036757;28;20182;-93
2021/08/22 12:51:22;;;;;;;22.90;12.10;;;20.30;90.20;;;;;;5037069;28;20201;-93
2021/08/22 12:53:50;;;;;;;18.73;13.55;;;20.20;90.10;;;;;;5036053;28;20288;-92
2021/08/22 12:56:18;;;;;;;28.77;14.30;;;20.20;90.20;;;;;;5036454;28;20169;-92
2021/08/22 12:58:44;;;;;;;24.23;14.20;;;20.20;90.50;;;;;;5037212;28;20557;-93
2021/08/22 13:01:10;;;;;;;24.47;12.97;;;20.30;90.70;;;;;;5036694;28;20268;-92
2021/08/22 13:03:36;;;;;;;19.50;12.30;;;20.40;90.80;;;;;;5037320;28;20443;-92
2021/08/22 13:06:04;;;;;;;23.80;13.03;;;20.60;90.90;;;;;;5048761;28;20209;-92
2021/08/22 13:08:30;;;;;;;19.00;11.50;;;20.60;91.50;;;;;;5057754;28;20241;-87
2021/08/22 13:10:56;;;;;;;16.57;10.57;;;20.80;90.80;;;;;;5057290;28;20220;-88
2021/08/22 13:13:22;;;;;;;15.37;11.30;;;20.80;89.40;;;;;;5056967;28;20476;-87
2021/08/22 13:15:47;;;;;;;16.30;10.63;;;20.80;89.20;;;;;;5056990;28;20177;-91
2021/08/22 13:18:13;;;;;;;16.20;10.47;;;20.80;89.30;;;;;;5057975;28;20181;-87
2021/08/22 13:20:39;;;;;;;11.67;6.30;;;20.90;89.10;;;;;;5057404;28;20185;-87
2021/08/22 13:23:05;;;;;;;6.83;5.63;;;21.00;88.20;;;;;;5056622;28;20256;-88
2021/08/22 13:25:31;;;;;;;8.63;6.50;;;21.30;87.00;;;;;;5037509;28;20166;-87
2021/08/22 13:27:58;;;;;;;10.50;7.00;;;21.60;85.60;;;;;;5037367;28;20163;-89
2021/08/22 13:30:24;;;;;;;12.10;7.80;;;21.70;85.70;;;;;;5037445;28;20642;-87
2021/08/22 13:32:53;;;;;;;12.30;9.03;;;21.70;85.20;;;;;;5036614;28;20456;-89
2021/08/22 13:35:20;;;;;;;10.47;6.33;;;21.60;85.40;;;;;;5037135;28;20425;-89
2021/08/22 13:37:45;;;;;;;11.70;9.20;;;21.80;85.50;;;;;;5037908;28;20441;-88
2021/08/22 13:40:11;;;;;;;17.40;10.93;;;21.80;84.80;;;;;;5036874;28;20437;-87
2021/08/22 13:42:37;;;;;;;15.20;11.90;;;21.70;85.10;;;;;;5014812;28;20965;-89
2021/08/22 13:45:06;;;;;;;15.43;10.00;;;21.60;85.80;;;;;;5017889;28;20420;-88
2021/08/22 13:47:38;;;;;;;15.60;11.00;;;21.60;86.00;;;;;;5016488;28;20174;-89
2021/08/22 13:50:06;;;;;;;14.13;11.07;;;21.50;85.90;;;;;;5018004;28;20445;-88
2021/08/22 13:52:32;;;;;;;23.97;14.07;;;21.20;86.60;;;;;;5020572;28;20195;-87
2021/08/22 13:54:57;;;;;;;7.70;6.17;;;20.90;87.00;;;;;;5045705;28;20420;-86
2021/08/22 13:57:23;;;;;;;8.10;7.10;;;20.90;87.10;;;;;;5053103;28;20220;-87
2021/08/22 13:59:49;;;;;;;12.27;8.80;;;21.00;87.50;;;;;;5045166;28;20232;-87
2021/08/22 14:02:14;;;;;;;9.53;6.80;;;21.00;87.30;;;;;;5033667;28;20570;-87
2021/08/22 14:04:40;;;;;;;11.67;6.80;;;21.00;86.50;;;;;;5033552;28;20193;-87
2021/08/22 14:07:06;;;;;;;13.00;8.20;;;21.20;86.60;;;;;;5035679;28;20540;-87
2021/08/22 14:09:31;;;;;;;10.57;8.40;;;21.30;86.70;;;;;;5036663;28;20180;-87
2021/08/22 14:11:58;;;;;;;14.80;7.63;;;21.50;86.60;;;;;;5035235;28;20209;-86
2021/08/22 14:14:27;;;;;;;14.10;9.10;;;21.70;86.30;;;;;;5045842;28;20186;-87
2021/08/22 14:16:53;;;;;;;14.60;9.07;;;21.80;85.70;;;;;;5052968;28;20456;-88
2021/08/22 14:19:19;;;;;;;8.03;6.80;;;21.90;85.80;;;;;;5054267;28;20409;-87
2021/08/22 14:21:45;;;;;;;7.30;6.07;;;21.70;82.90;;;;;;5036339;28;20509;-87
2021/08/22 14:24:19;;;;;;;8.87;6.10;;;21.70;82.50;;;;;;5021018;28;20202;-87
2021/08/22 14:26:45;;;;;;;7.80;6.07;;;21.60;81.70;;;;;;5017578;28;20167;-87
2021/08/22 14:29:12;;;;;;;8.90;5.87;;;21.70;82.70;;;;;;5016340;28;20432;-87
2021/08/22 14:31:38;;;;;;;13.97;10.40;;;21.70;82.50;;;;;;5015454;28;20500;-87
2021/08/22 14:34:07;;;;;;;11.87;9.47;;;21.60;81.20;;;;;;5022915;28;20452;-86
2021/08/22 14:36:35;;;;;;;12.03;9.87;;;21.40;82.00;;;;;;5031393;28;20486;-86
2021/08/22 14:39:02;;;;;;;12.77;10.80;;;21.30;81.90;;;;;;5025099;28;20427;-86
2021/08/22 14:41:34;;;;;;;16.40;12.60;;;21.30;82.40;;;;;;5022933;28;20422;-87
2021/08/22 14:44:12;;;;;;;21.10;12.70;;;21.40;83.40;;;;;;5020516;28;20449;-88
2021/08/22 14:46:37;;;;;;;19.80;14.73;;;21.30;83.10;;;;;;5029575;28;20409;-87
2021/08/22 14:49:12;;;;;;;23.10;14.73;;;21.20;83.40;;;;;;5033247;28;20427;-87
2021/08/22 14:51:38;;;;;;;21.37;12.77;;;21.10;84.40;;;;;;5029713;28;20209;-87
2021/08/22 14:54:04;;;;;;;17.33;12.47;;;20.80;83.90;;;;;;5014470;28;20453;-86
2021/08/22 14:56:30;;;;;;;25.20;14.17;;;20.80;84.40;;;;;;5016186;28;20447;-87
2021/08/22 14:58:57;;;;;;;23.02;13.80;;;20.70;84.80;;;;;;5015515;28;20179;-87
2021/08/22 15:01:24;;;;;;;15.85;10.65;;;20.60;84.60;;;;;;5014682;28;20197;-87
2021/08/22 15:03:53;;;;;;;16.10;10.57;;;20.50;83.70;;;;;;5017441;28;20205;-86
2021/08/22 15:06:22;;;;;;;16.63;9.95;;;20.40;83.50;;;;;;5018407;28;20478;-86
2021/08/22 15:08:56;;;;;;;9.70;7.35;;;20.40;84.00;;;;;;5017479;28;20179;-87
2021/08/22 15:11:22;;;;;;;11.93;9.63;;;20.40;83.90;;;;;;5016090;28;20535;-87
2021/08/22 15:13:48;;;;;;;8.20;7.00;;;20.60;83.80;;;;;;5029093;28;20213;-87